createdAt,value
2023-03-29T00:01:42.122Z,-1.11
2023-03-29T00:04:45.478Z,-1.16
2023-03-29T00:07:48.526Z,-1.11
2023-03-29T00:10:52.187Z,-1.17
2023-03-29T00:13:55.084Z,-1.33
2023-03-29T00:16:58.508Z,-1.29
2023-03-29T00:20:01.466Z,-1.22
2023-03-29T00:23:04.352Z,-1.21
2023-03-29T00:26:08.254Z,-1.38
2023-03-29T00:29:13.018Z,-1.52
2023-03-29T00:32:16.387Z,-1.59
2023-03-29T00:35:19.935Z,-1.63
2023-03-29T00:38:22.890Z,-1.63
2023-03-29T00:41:26.357Z,-1.60
2023-03-29T00:45:04.089Z,-1.59
2023-03-29T00:48:11.370Z,-1.67
2023-03-29T00:51:19.120Z,-1.73
2023-03-29T00:54:21.997Z,-1.81
2023-03-29T00:57:28.373Z,-1.84
2023-03-29T01:00:36.994Z,-1.93
2023-03-29T01:03:46.613Z,-1.87
2023-03-29T01:07:05.889Z,-1.86
2023-03-29T01:10:20.689Z,-1.93
2023-03-29T01:13:37.333Z,-1.98
2023-03-29T01:16:41.886Z,-1.68
2023-03-29T01:19:58.190Z,-1.73
2023-03-29T01:23:22.384Z,-1.72
2023-03-29T01:26:49.121Z,-1.79
2023-03-29T01:29:58.781Z,-1.84
2023-03-29T01:33:24.224Z,-1.80
2023-03-29T01:36:29.928Z,-1.87
2023-03-29T01:39:34.433Z,-1.96
2023-03-29T01:43:01.902Z,-1.97
2023-03-29T01:46:11.597Z,-2.00
2023-03-29T01:49:23.491Z,-2.07
2023-03-29T01:52:34.942Z,-2.11
2023-03-29T01:55:43.344Z,-2.16
2023-03-29T01:58:51.379Z,-2.04
2023-03-29T02:01:58.858Z,-2.02
2023-03-29T02:05:04.211Z,-1.91
2023-03-29T02:08:10.065Z,-1.90
2023-03-29T02:11:13.447Z,-1.80
2023-03-29T02:14:17.191Z,-1.71
2023-03-29T02:17:23.254Z,-1.51
2023-03-29T02:20:40.762Z,-1.49
2023-03-29T02:23:46.767Z,-1.25
2023-03-29T02:26:50.085Z,-1.17
2023-03-29T02:29:53.499Z,-1.08
2023-03-29T02:33:05.949Z,-1.14
2023-03-29T02:36:31.480Z,-1.12
2023-03-29T02:39:36.040Z,-1.05
2023-03-29T02:42:42.386Z,-1.04
2023-03-29T02:45:47.387Z,-0.99
2023-03-29T02:48:53.050Z,-0.93
2023-03-29T02:52:01.599Z,-0.85
2023-03-29T02:55:08.603Z,-0.93
2023-03-29T02:58:13.625Z,-0.96
2023-03-29T03:01:18.506Z,-0.98
2023-03-29T03:04:21.771Z,-1.00
2023-03-29T03:07:25.082Z,-1.00
2023-03-29T03:10:28.029Z,-1.02
2023-03-29T03:13:33.286Z,-1.08
2023-03-29T03:16:37.215Z,-1.20
2023-03-29T03:19:40.166Z,-1.27
2023-03-29T03:22:48.939Z,-1.37
2023-03-29T03:25:52.821Z,-1.38
2023-03-29T03:28:56.654Z,-1.50
2023-03-29T03:32:18.730Z,-1.68
2023-03-29T03:35:50.914Z,-1.79
2023-03-29T03:38:53.989Z,-1.83
2023-03-29T03:41:57.186Z,-1.90
2023-03-29T03:44:59.936Z,-1.82
2023-03-29T03:48:21.978Z,-1.84
2023-03-29T03:51:29.570Z,-1.76
2023-03-29T03:54:32.762Z,-1.84
2023-03-29T03:58:02.467Z,-1.96
2023-03-29T04:01:08.528Z,-2.00
2023-03-29T04:04:27.690Z,-2.08
2023-03-29T04:07:41.552Z,-1.98
2023-03-29T04:11:03.352Z,-1.79
2023-03-29T04:14:12.447Z,-1.71
2023-03-29T04:17:33.678Z,-1.93
2023-03-29T04:20:44.058Z,-2.05
2023-03-29T04:23:48.764Z,-2.09
2023-03-29T04:26:51.584Z,-2.12
2023-03-29T04:29:58.919Z,-2.11
2023-03-29T04:33:21.504Z,-2.08
2023-03-29T04:36:31.113Z,-2.01
2023-03-29T04:39:34.446Z,-2.10
2023-03-29T04:42:44.476Z,-2.10
2023-03-29T04:45:47.259Z,-2.09
2023-03-29T04:49:03.010Z,-2.01
2023-03-29T04:52:12.245Z,-1.77
2023-03-29T04:55:15.068Z,-1.89
2023-03-29T04:58:50.075Z,-1.94
2023-03-29T05:01:54.736Z,-1.91
2023-03-29T05:04:57.995Z,-1.89
2023-03-29T05:08:01.091Z,-1.92
2023-03-29T05:11:13.883Z,-1.96
2023-03-29T05:14:18.676Z,-1.91
2023-03-29T05:17:22.107Z,-1.87
2023-03-29T05:20:26.318Z,-1.80
2023-03-29T05:23:29.920Z,-1.42
2023-03-29T05:27:02.563Z,-1.06
2023-03-29T05:30:09.311Z,-0.67
2023-03-29T05:33:21.193Z,-0.38
2023-03-29T05:36:24.912Z,-0.07
2023-03-29T05:39:27.963Z,0.26
2023-03-29T05:42:31.368Z,0.78
2023-03-29T05:45:39.280Z,1.02
2023-03-29T05:48:42.486Z,1.25
2023-03-29T05:51:46.522Z,1.41
2023-03-29T05:54:49.264Z,1.51
2023-03-29T05:57:52.757Z,1.77
2023-03-29T06:01:00.695Z,1.91
2023-03-29T06:04:28.044Z,2.32
2023-03-29T06:07:56.767Z,2.66
2023-03-29T06:11:20.719Z,3.01
2023-03-29T06:15:12.158Z,3.77
2023-03-29T06:18:24.758Z,4.58
2023-03-29T06:21:28.652Z,4.92
2023-03-29T06:24:32.398Z,6.21
2023-03-29T06:27:40.805Z,6.20
2023-03-29T06:30:46.359Z,5.87
2023-03-29T06:33:51.985Z,5.49
2023-03-29T06:37:07.454Z,5.66
2023-03-29T06:40:10.820Z,6.43
2023-03-29T06:43:19.297Z,7.19
2023-03-29T06:46:41.401Z,8.63
2023-03-29T06:49:44.751Z,9.02
2023-03-29T06:53:04.636Z,8.76
2023-03-29T06:56:09.909Z,8.47
2023-03-29T06:59:21.704Z,8.93
2023-03-29T07:02:35.178Z,9.06
2023-03-29T07:05:45.120Z,9.19
2023-03-29T07:08:52.601Z,9.29
2023-03-29T07:12:17.401Z,9.42
2023-03-29T07:15:22.206Z,10.65
2023-03-29T07:18:51.427Z,12.43
2023-03-29T07:22:17.148Z,13.47
2023-03-29T07:25:26.309Z,14.03
2023-03-29T07:28:29.231Z,14.57
2023-03-29T07:31:35.926Z,14.52
2023-03-29T07:34:59.487Z,15.02
2023-03-29T07:38:08.890Z,15.93
2023-03-29T07:41:21.313Z,15.00
2023-03-29T07:44:29.602Z,15.69
2023-03-29T07:47:33.310Z,16.86
2023-03-29T07:50:36.607Z,17.47
2023-03-29T07:53:40.838Z,16.81
2023-03-29T07:56:58.020Z,18.12
2023-03-29T08:00:11.986Z,17.09
2023-03-29T08:03:17.392Z,17.25
2023-03-29T08:06:20.319Z,16.75
2023-03-29T08:09:23.626Z,16.23
2023-03-29T08:12:26.818Z,15.53
2023-03-29T08:15:32.246Z,16.04
2023-03-29T08:18:35.310Z,16.01
2023-03-29T08:21:39.860Z,15.80
2023-03-29T08:24:43.415Z,15.95
2023-03-29T08:27:46.312Z,16.04
2023-03-29T08:30:53.750Z,15.29
2023-03-29T08:33:57.450Z,16.21
2023-03-29T08:37:18.581Z,14.30
2023-03-29T08:40:28.368Z,15.94
2023-03-29T08:43:55.303Z,17.57
2023-03-29T08:47:30.029Z,18.26
2023-03-29T08:50:48.086Z,17.63
2023-03-29T08:53:56.712Z,16.57
2023-03-29T08:57:33.719Z,16.91
2023-03-29T09:00:48.522Z,16.60
2023-03-29T09:04:14.966Z,17.35
2023-03-29T09:07:26.900Z,17.65
2023-03-29T09:10:42.569Z,16.60
2023-03-29T09:14:07.162Z,15.81
2023-03-29T09:17:10.191Z,15.99
2023-03-29T09:20:13.008Z,16.53
2023-03-29T09:23:31.393Z,15.42
2023-03-29T09:27:10.384Z,16.30
2023-03-29T09:30:31.429Z,18.14
2023-03-29T09:33:45.094Z,17.29
2023-03-29T09:36:58.302Z,16.96
2023-03-29T09:40:07.180Z,16.19
2023-03-29T09:43:44.450Z,15.62
2023-03-29T09:46:57.829Z,15.22
2023-03-29T09:50:31.026Z,14.47
2023-03-29T09:53:37.363Z,15.03
2023-03-29T09:57:14.050Z,15.34
2023-03-29T10:00:18.156Z,15.88
2023-03-29T10:03:26.537Z,16.76
2023-03-29T10:06:43.449Z,18.13
2023-03-29T10:09:50.710Z,20.55
2023-03-29T10:13:04.256Z,20.50
2023-03-29T10:16:09.976Z,19.26
2023-03-29T10:19:30.999Z,18.01
2023-03-29T10:22:38.405Z,19.09
2023-03-29T10:25:46.219Z,17.61
2023-03-29T10:28:55.209Z,17.59
2023-03-29T10:31:58.650Z,16.35
2023-03-29T10:35:12.473Z,16.15
2023-03-29T10:38:19.274Z,15.18
2023-03-29T10:41:23.302Z,15.87
2023-03-29T10:44:36.776Z,19.79
2023-03-29T10:47:45.806Z,21.51
2023-03-29T10:50:53.202Z,22.21
2023-03-29T10:54:00.563Z,22.16
2023-03-29T10:57:10.623Z,20.57
2023-03-29T11:00:18.492Z,19.19
2023-03-29T11:04:01.330Z,19.25
2023-03-29T11:07:32.056Z,18.29
2023-03-29T11:10:53.096Z,18.98
2023-03-29T11:14:08.770Z,19.80
2023-03-29T11:17:44.814Z,21.32
2023-03-29T11:21:00.526Z,20.35
2023-03-29T11:24:22.532Z,18.63
2023-03-29T11:28:02.362Z,17.24
2023-03-29T11:31:38.387Z,16.66
2023-03-29T11:35:03.565Z,15.30
2023-03-29T11:38:12.847Z,15.55
2023-03-29T11:41:25.403Z,14.81
2023-03-29T11:44:31.263Z,14.47
2023-03-29T11:47:39.802Z,14.27
2023-03-29T11:50:58.946Z,15.02
2023-03-29T11:54:17.042Z,14.58
2023-03-29T11:57:35.355Z,13.97
2023-03-29T12:00:44.964Z,13.62
2023-03-29T12:03:56.050Z,13.51
2023-03-29T12:07:09.043Z,13.46
2023-03-29T12:10:20.841Z,13.49
2023-03-29T12:13:34.284Z,13.32
2023-03-29T12:16:46.866Z,13.68
2023-03-29T12:20:00.175Z,14.12
2023-03-29T12:23:03.189Z,14.32
2023-03-29T12:26:38.086Z,14.18
2023-03-29T12:30:19.613Z,14.10
2023-03-29T12:33:43.464Z,13.86
2023-03-29T12:37:07.775Z,13.80
2023-03-29T12:40:42.417Z,13.44
2023-03-29T12:44:04.803Z,13.94
2023-03-29T12:47:45.753Z,14.53
2023-03-29T12:51:01.188Z,14.60
2023-03-29T12:54:16.071Z,14.16
2023-03-29T12:57:28.362Z,13.70
2023-03-29T13:00:34.199Z,14.14
2023-03-29T13:03:39.790Z,14.95
2023-03-29T13:07:04.005Z,15.40
2023-03-29T13:10:28.617Z,16.17
2023-03-29T13:13:36.769Z,16.12
2023-03-29T13:16:41.775Z,16.06
2023-03-29T13:20:06.118Z,16.71
2023-03-29T13:23:25.328Z,17.53
2023-03-29T13:26:36.956Z,17.06
2023-03-29T13:30:03.182Z,17.52
2023-03-29T13:33:25.670Z,17.83
2023-03-29T13:36:51.280Z,17.33
2023-03-29T13:39:55.985Z,17.61
2023-03-29T13:43:02.113Z,18.36
2023-03-29T13:46:16.648Z,19.12
2023-03-29T13:49:25.926Z,21.21
2023-03-29T13:52:39.415Z,20.09
2023-03-29T13:55:49.449Z,19.63
2023-03-29T13:58:58.306Z,20.60
2023-03-29T14:02:03.181Z,20.39
2023-03-29T14:05:09.883Z,21.22
2023-03-29T14:08:25.662Z,20.12
2023-03-29T14:11:30.996Z,19.54
2023-03-29T14:14:33.944Z,19.61
2023-03-29T14:17:37.512Z,17.96
2023-03-29T14:20:45.979Z,16.84
2023-03-29T14:23:56.315Z,16.08
2023-03-29T14:27:04.666Z,15.75
2023-03-29T14:30:18.593Z,15.15
2023-03-29T14:33:30.227Z,14.56
2023-03-29T14:36:33.821Z,14.21
2023-03-29T14:39:37.548Z,14.13
2023-03-29T14:42:41.392Z,14.18
2023-03-29T14:45:44.824Z,14.08
2023-03-29T14:48:48.451Z,13.29
2023-03-29T14:51:52.590Z,12.92
2023-03-29T14:54:58.549Z,12.94
2023-03-29T14:58:01.588Z,13.16
2023-03-29T15:01:14.808Z,13.02
2023-03-29T15:04:17.925Z,12.89
2023-03-29T15:07:23.919Z,13.08
2023-03-29T15:10:27.347Z,13.05
2023-03-29T15:13:31.024Z,12.89
2023-03-29T15:16:33.958Z,12.97
2023-03-29T15:19:37.186Z,12.72
2023-03-29T15:22:52.097Z,12.72
2023-03-29T15:25:56.529Z,12.77
2023-03-29T15:29:23.508Z,12.40
2023-03-29T15:32:34.458Z,12.41
2023-03-29T15:35:38.163Z,12.13
2023-03-29T15:38:45.005Z,12.26
2023-03-29T15:41:50.914Z,12.00
2023-03-29T15:44:54.829Z,11.88
2023-03-29T15:47:57.629Z,11.91
2023-03-29T15:51:04.640Z,11.93
2023-03-29T15:54:09.300Z,11.93
2023-03-29T15:57:16.439Z,11.89
2023-03-29T16:00:21.229Z,11.65
2023-03-29T16:03:24.104Z,11.58
2023-03-29T16:06:27.533Z,11.52
2023-03-29T16:09:30.864Z,11.45
2023-03-29T16:12:36.001Z,11.50
2023-03-29T16:15:41.082Z,11.18
2023-03-29T16:18:43.869Z,11.11
2023-03-29T16:21:48.232Z,10.99
2023-03-29T16:24:51.602Z,10.92
2023-03-29T16:27:54.574Z,10.82
2023-03-29T16:30:57.381Z,10.73
2023-03-29T16:34:00.324Z,10.82
2023-03-29T16:37:03.221Z,10.79
2023-03-29T16:40:07.849Z,10.67
2023-03-29T16:43:18.804Z,10.71
2023-03-29T16:46:21.721Z,10.61
2023-03-29T16:49:25.119Z,10.70
2023-03-29T16:52:28.039Z,10.48
2023-03-29T16:55:31.073Z,10.35
2023-03-29T16:58:33.864Z,10.25
2023-03-29T17:01:37.383Z,10.23
2023-03-29T17:04:40.568Z,10.34
2023-03-29T17:07:43.517Z,10.20
2023-03-29T17:10:46.475Z,10.22
2023-03-29T17:13:50.467Z,10.18
2023-03-29T17:16:54.045Z,10.17
2023-03-29T17:19:57.391Z,9.99
2023-03-29T17:23:00.178Z,9.97
2023-03-29T17:26:03.701Z,9.91
2023-03-29T17:29:07.205Z,9.86
2023-03-29T17:32:10.737Z,9.85
2023-03-29T17:35:13.553Z,9.99
2023-03-29T17:38:16.444Z,10.00
2023-03-29T17:41:19.599Z,9.91
2023-03-29T17:44:22.567Z,9.88
2023-03-29T17:47:25.650Z,9.75
2023-03-29T17:50:28.587Z,9.77
2023-03-29T17:53:31.613Z,9.74
2023-03-29T17:56:34.460Z,9.66
2023-03-29T17:59:38.176Z,9.57
2023-03-29T18:02:41.695Z,9.64
2023-03-29T18:05:44.995Z,9.56
2023-03-29T18:08:48.242Z,9.53
2023-03-29T18:11:51.190Z,9.52
2023-03-29T18:14:56.674Z,9.52
2023-03-29T18:17:59.808Z,9.53
2023-03-29T18:21:02.682Z,9.51
2023-03-29T18:24:06.104Z,9.56
2023-03-29T18:27:08.907Z,9.58
2023-03-29T18:30:14.000Z,9.49
2023-03-29T18:33:17.284Z,9.67
2023-03-29T18:36:20.518Z,9.56
2023-03-29T18:39:24.141Z,9.53
2023-03-29T18:42:27.159Z,9.64
2023-03-29T18:45:29.962Z,9.51
2023-03-29T18:48:38.958Z,9.39
2023-03-29T18:51:42.559Z,9.36
2023-03-29T18:54:46.868Z,9.31
2023-03-29T18:57:50.058Z,9.30
2023-03-29T19:00:53.078Z,9.26
2023-03-29T19:03:58.086Z,9.26
2023-03-29T19:07:01.622Z,9.28
2023-03-29T19:10:08.239Z,9.29
2023-03-29T19:13:11.380Z,9.30
2023-03-29T19:16:14.597Z,9.20
2023-03-29T19:19:23.962Z,9.23
2023-03-29T19:22:26.851Z,9.29
2023-03-29T19:25:31.641Z,9.42
2023-03-29T19:28:35.291Z,9.28
2023-03-29T19:31:38.698Z,9.21
2023-03-29T19:34:42.454Z,9.21
2023-03-29T19:37:45.630Z,9.12
2023-03-29T19:40:50.660Z,9.12
2023-03-29T19:43:53.531Z,9.07
2023-03-29T19:46:56.644Z,9.06
2023-03-29T19:50:00.203Z,9.07
2023-03-29T19:53:03.080Z,9.05
2023-03-29T19:56:07.929Z,8.97
2023-03-29T19:59:14.908Z,8.84
2023-03-29T20:02:18.088Z,8.74
2023-03-29T20:05:21.862Z,8.74
2023-03-29T20:08:25.101Z,8.71
2023-03-29T20:11:29.002Z,8.54
2023-03-29T20:14:32.282Z,8.56
2023-03-29T20:17:35.843Z,8.63
2023-03-29T20:20:38.910Z,8.73
2023-03-29T20:23:42.119Z,8.68
2023-03-29T20:26:44.943Z,8.57
2023-03-29T20:29:49.037Z,8.47
2023-03-29T20:32:53.197Z,8.44
2023-03-29T20:35:56.224Z,8.49
2023-03-29T20:38:59.429Z,8.45
2023-03-29T20:42:02.600Z,8.36
2023-03-29T20:45:05.960Z,8.38
2023-03-29T20:48:09.650Z,8.34
2023-03-29T20:51:14.187Z,8.37
2023-03-29T20:54:18.475Z,8.30
2023-03-29T20:57:21.439Z,8.19
2023-03-29T21:00:25.220Z,8.19
2023-03-29T21:03:28.045Z,8.19
2023-03-29T21:06:31.804Z,8.32
2023-03-29T21:09:35.953Z,8.25
2023-03-29T21:12:40.113Z,8.10
2023-03-29T21:15:43.894Z,8.09
2023-03-29T21:18:47.306Z,7.92
2023-03-29T21:21:52.354Z,7.90
2023-03-29T21:24:55.248Z,7.93
2023-03-29T21:27:58.113Z,7.91
2023-03-29T21:31:05.783Z,8.00
2023-03-29T21:34:09.197Z,8.00
2023-03-29T21:37:15.077Z,7.97
2023-03-29T21:40:18.127Z,7.89
2023-03-29T21:43:21.646Z,7.90
2023-03-29T21:46:26.053Z,7.92
2023-03-29T21:49:28.861Z,7.91
2023-03-29T21:52:32.012Z,8.02
2023-03-29T21:55:37.450Z,8.00
2023-03-29T21:58:40.690Z,7.99
2023-03-29T22:01:43.569Z,7.97
2023-03-29T22:04:46.424Z,7.98
2023-03-29T22:07:50.640Z,7.85
2023-03-29T22:10:57.027Z,7.79
2023-03-29T22:13:59.944Z,7.74
2023-03-29T22:17:06.370Z,7.72
2023-03-29T22:20:14.148Z,7.74
2023-03-29T22:23:16.994Z,7.85
2023-03-29T22:26:23.569Z,7.87
2023-03-29T22:29:26.445Z,7.85
2023-03-29T22:32:33.128Z,7.80
2023-03-29T22:35:36.097Z,7.82
2023-03-29T22:38:39.040Z,7.75
2023-03-29T22:41:42.365Z,7.74
2023-03-29T22:44:45.207Z,7.76
2023-03-29T22:47:48.063Z,7.63
2023-03-29T22:50:50.888Z,7.63
2023-03-29T22:53:53.820Z,7.61
2023-03-29T22:56:57.375Z,7.64
2023-03-29T23:00:00.250Z,7.64
2023-03-29T23:03:03.136Z,7.61
2023-03-29T23:06:06.884Z,7.61
2023-03-29T23:09:10.530Z,7.73
2023-03-29T23:12:13.577Z,7.76
2023-03-29T23:15:17.298Z,7.69
2023-03-29T23:18:21.566Z,7.63
2023-03-29T23:21:25.248Z,7.59
2023-03-29T23:24:30.586Z,7.56
2023-03-29T23:27:33.415Z,7.56
2023-03-29T23:30:37.378Z,7.48
2023-03-29T23:33:42.841Z,7.52
2023-03-29T23:36:45.719Z,7.59
2023-03-29T23:39:48.475Z,7.60
2023-03-29T23:42:51.361Z,7.64
2023-03-29T23:45:57.808Z,7.61
2023-03-29T23:49:00.612Z,7.56
2023-03-29T23:52:03.668Z,7.77
2023-03-29T23:55:08.739Z,7.82
2023-03-29T23:58:11.821Z,7.79
